KILG/ILG METAR and TAF weather

Enter ICAO airport designator
Station Type Date Time Source
KILG METAR 2019/04/22 23:51 UTC NOAA

KILG 222351Z 32003KT 10SM CLR 18/09 A3003 RMK AO2 SLP170 60000 T01780094 10222 20178 51008 $


Station Type Date Time Source
KILG Decoded METAR 2019/04/22 23:51 UTC NOAA

WILMINGTON NEW CASTLE CO, DE, United States (KILG) 39-40N 075-36W 28M
Apr 22, 2019 - 07:51 PM EDT / 2019.04.22 2351 UTC
Wind: from the NW (320 degrees) at 3 MPH (3 KT):0
Visibility: 10 mile(s):0
Sky conditions: clear
Temperature: 64.0 F (17.8 C)
Dew Point: 48.9 F (9.4 C)
Relative Humidity: 57%
Pressure (altimeter): 30.03 in. Hg (1016 hPa)
Pressure tendency: 0.02 inches (0.8 hPa) higher than three hours ago
ob: KILG 222351Z 32003KT 10SM CLR 18/09 A3003 RMK AO2 SLP170 60000 T01780094 10222 20178 51008
cycle: 0

Station Type Date Time Source
KILG TAF 2019/04/22 20:52 UTC NOAA

TAF
AMD KILG 221949Z 2220/2318 32012G19KT P6SM BKN040
FM222100 30010KT P6SM BKN090
FM230300 VRB04KT P6SM FEW200
FM231500 22008KT P6SM SKC

Example: see airport list